首页
METAR-TAF:

METAR-TAF

机场 :

乌日策, 塞尔维亚

纬度: 43-53-56N, 经度: 19-41-52E, 海拔: 904米

当前天气观测

该预报发布于36分钟前的14:00 UTC
风速3节,风向西转西南,在南转西南西转西北之间变化
温度 12°C
湿度 22%
气压 1021 hPa
能见度10公里或以上
1500米以下无云,无积雨云

METAR: LYUZ 231400Z 25003KT 210V300 CAVOK 12/M09 Q1021

时间: 15:36 (14:36 UTC)

预报

该预报发布于3小时和36分钟前的11:00 UTC
预报有效从23日的 12点(UTC)到 24日的 12点(UTC)
风速8节,风向西南
能见度10公里或以上
1500米以下无云,无积雨云
短暂存在
从 23日的 18点(UTC)到 24日的 05点(UTC)
风速15节,风向西转西南,有时为25节阵风
成为
从 24日的 10点(UTC)到 24日的 12点(UTC)
风速12节,风向西北

TAF: LYUZ 231100Z 2312/2412 23008KT CAVOK TX13/2313Z TN04/2405Z TEMPO 2318/2405 24015G25KT BECMG 2410/2412 32012KT

超过4000个机场的气象观测和天气预报(METAR&TAF报告)。

可查询的气象台以黄色和红色小点在地图上表示。

将鼠标移到小点上方,可查看气象台名称。

然后点击查看天气观测和预报。

如需切换地图:点击带黑十字的绿色按钮放大地图;点击带横线的绿色按钮缩小地图;或者点击绿色箭头查看邻近地区的地图。


METAR-TAF: